createdAt,value
2023-02-24T00:02:15.353Z,12.90
2023-02-24T00:04:44.257Z,12.30
2023-02-24T00:07:17.087Z,13.50
2023-02-24T00:09:46.781Z,13.60
2023-02-24T00:12:16.136Z,13.90
2023-02-24T00:14:48.535Z,11.30
2023-02-24T00:17:17.180Z,12.00
2023-02-24T00:19:46.791Z,11.60
2023-02-24T00:22:14.951Z,12.70
2023-02-24T00:24:44.699Z,12.90
2023-02-24T00:27:12.839Z,12.10
2023-02-24T00:29:45.900Z,12.10
2023-02-24T00:32:15.037Z,13.50
2023-02-24T00:34:44.716Z,10.50
2023-02-24T00:37:15.394Z,13.50
2023-02-24T00:39:48.110Z,12.10
2023-02-24T00:42:16.342Z,13.40
2023-02-24T00:44:45.535Z,11.30
2023-02-24T00:47:17.054Z,13.00
2023-02-24T00:49:46.066Z,11.80
2023-02-24T00:52:16.692Z,12.40
2023-02-24T00:54:46.271Z,11.80
2023-02-24T00:57:14.982Z,12.60
2023-02-24T00:59:47.826Z,13.50
2023-02-24T01:02:16.922Z,13.00
2023-02-24T01:04:46.233Z,13.00
2023-02-24T01:07:15.028Z,12.10
2023-02-24T01:09:44.466Z,12.40
2023-02-24T01:12:38.684Z,12.50
2023-02-24T01:15:09.317Z,13.20
2023-02-24T01:17:38.078Z,13.10
2023-02-24T01:20:16.848Z,12.60
2023-02-24T01:22:47.423Z,14.10
2023-02-24T01:25:17.581Z,12.40
2023-02-24T01:27:45.675Z,13.40
2023-02-24T01:30:16.191Z,12.20
2023-02-24T01:32:47.518Z,12.40
2023-02-24T01:35:16.797Z,12.90
2023-02-24T01:37:46.056Z,14.40
2023-02-24T01:40:20.803Z,13.70
2023-02-24T01:42:49.591Z,13.40
2023-02-24T01:45:21.610Z,12.70
2023-02-24T01:47:51.417Z,12.80
2023-02-24T01:50:21.938Z,14.10
2023-02-24T01:52:51.344Z,13.80
2023-02-24T01:55:20.315Z,13.80
2023-02-24T01:57:50.645Z,13.30
2023-02-24T02:00:38.227Z,13.30
2023-02-24T02:03:12.824Z,13.70
2023-02-24T02:05:41.102Z,13.00
2023-02-24T02:08:10.297Z,12.20
2023-02-24T02:10:41.162Z,13.00
2023-02-24T02:13:13.401Z,13.60
2023-02-24T02:15:47.447Z,13.90
2023-02-24T02:18:48.461Z,13.20
2023-02-24T02:21:44.625Z,13.40
2023-02-24T02:24:22.289Z,12.10
2023-02-24T02:26:58.634Z,14.20
2023-02-24T02:29:30.254Z,12.40
2023-02-24T02:32:17.404Z,13.20
2023-02-24T02:35:06.699Z,14.00
2023-02-24T02:37:43.182Z,13.50
2023-02-24T02:40:21.362Z,13.70
2023-02-24T02:43:01.468Z,13.80
2023-02-24T02:46:03.849Z,15.00
2023-02-24T02:48:37.183Z,13.90
2023-02-24T02:51:07.874Z,14.60
2023-02-24T02:53:39.320Z,11.70
2023-02-24T02:58:49.674Z,13.80
2023-02-24T03:01:21.089Z,14.90
2023-02-24T03:03:54.806Z,13.40
2023-02-24T03:06:28.884Z,12.90
2023-02-24T03:09:12.564Z,14.30
2023-02-24T03:11:44.909Z,14.40
2023-02-24T03:14:16.788Z,15.60
2023-02-24T03:16:49.418Z,16.10
2023-02-24T03:19:20.756Z,15.10
2023-02-24T03:21:54.127Z,14.20
2023-02-24T03:24:22.246Z,14.40
2023-02-24T03:27:07.922Z,14.60
2023-02-24T03:29:44.052Z,13.90
2023-02-24T03:32:18.350Z,14.60
2023-02-24T03:35:00.973Z,15.60
2023-02-24T03:37:30.198Z,13.90
2023-02-24T03:40:12.017Z,15.70
2023-02-24T03:42:45.495Z,14.80
2023-02-24T03:45:13.847Z,15.30
2023-02-24T03:47:46.878Z,13.30
2023-02-24T03:50:19.794Z,14.50
2023-02-24T03:53:08.830Z,13.50
2023-02-24T03:55:58.867Z,13.90
2023-02-24T03:58:39.435Z,13.90
2023-02-24T04:01:09.750Z,14.00
2023-02-24T04:03:46.620Z,12.30
2023-02-24T04:06:36.959Z,13.00
2023-02-24T04:09:17.830Z,13.00
2023-02-24T04:12:05.149Z,14.00
2023-02-24T04:14:47.502Z,14.20
2023-02-24T04:17:37.919Z,14.20
2023-02-24T04:20:13.857Z,13.10
2023-02-24T04:22:49.794Z,13.60
2023-02-24T04:25:25.056Z,13.80
2023-02-24T04:27:55.918Z,13.60
2023-02-24T04:30:32.203Z,13.40
2023-02-24T04:33:00.565Z,13.00
2023-02-24T04:35:30.349Z,12.10
2023-02-24T04:37:59.090Z,13.00
2023-02-24T04:40:27.797Z,12.80
2023-02-24T04:42:56.105Z,13.80
2023-02-24T04:45:28.591Z,13.70
2023-02-24T04:48:01.258Z,13.80
2023-02-24T04:50:32.996Z,13.50
2023-02-24T04:53:01.449Z,13.20
2023-02-24T04:55:33.186Z,14.80
2023-02-24T04:58:02.422Z,13.50
2023-02-24T05:00:35.882Z,15.20
2023-02-24T05:03:05.020Z,13.60
2023-02-24T05:05:34.042Z,13.10
2023-02-24T05:08:24.898Z,14.80
2023-02-24T05:10:54.013Z,13.50
2023-02-24T05:13:27.366Z,14.50
2023-02-24T05:15:57.012Z,14.60
2023-02-24T05:18:45.984Z,15.90
2023-02-24T05:21:34.334Z,15.00
2023-02-24T05:24:08.325Z,13.90
2023-02-24T05:26:46.842Z,8.80
2023-02-24T05:29:15.057Z,12.30
2023-02-24T05:31:44.588Z,13.80
2023-02-24T05:34:17.260Z,12.70
2023-02-24T05:36:47.101Z,14.70
2023-02-24T05:39:20.619Z,13.50
2023-02-24T05:41:50.410Z,13.50
2023-02-24T05:44:26.402Z,14.40
2023-02-24T05:47:19.924Z,14.60
2023-02-24T05:49:55.092Z,13.00
2023-02-24T05:52:23.644Z,14.40
2023-02-24T05:54:53.822Z,13.20
2023-02-24T05:57:27.105Z,13.70
2023-02-24T05:59:56.194Z,12.40
2023-02-24T06:02:29.352Z,12.30
2023-02-24T06:05:00.029Z,14.60
2023-02-24T06:07:29.489Z,13.90
2023-02-24T06:10:04.947Z,14.70
2023-02-24T06:12:34.484Z,13.70
2023-02-24T06:15:13.084Z,13.20
2023-02-24T06:17:41.518Z,16.70
2023-02-24T06:20:16.053Z,17.50
2023-02-24T06:22:44.363Z,14.50
2023-02-24T06:25:25.489Z,13.40
2023-02-24T06:27:55.908Z,14.30
2023-02-24T06:30:27.408Z,14.00
2023-02-24T06:32:57.485Z,12.90
2023-02-24T06:35:46.710Z,13.60
2023-02-24T06:38:17.939Z,13.50
2023-02-24T06:40:52.569Z,13.30
2023-02-24T06:43:23.749Z,12.70
2023-02-24T06:46:17.014Z,14.60
2023-02-24T06:48:53.133Z,13.90
2023-02-24T06:51:23.420Z,16.40
2023-02-24T06:53:57.745Z,14.70
2023-02-24T06:56:26.857Z,13.10
2023-02-24T06:58:56.085Z,12.10
2023-02-24T07:01:26.237Z,14.20
2023-02-24T07:04:02.907Z,12.70
2023-02-24T07:06:34.723Z,12.90
2023-02-24T07:09:05.617Z,14.00
2023-02-24T07:11:34.715Z,14.40
2023-02-24T07:14:05.981Z,14.90
2023-02-24T07:16:35.866Z,13.80
2023-02-24T07:19:11.489Z,13.50
2023-02-24T07:24:46.668Z,13.90
2023-02-24T07:27:27.709Z,13.20
2023-02-24T07:29:55.848Z,14.40
2023-02-24T07:32:25.902Z,14.00
2023-02-24T07:34:54.487Z,13.10
2023-02-24T07:37:24.722Z,14.10
2023-02-24T07:39:53.113Z,16.00
2023-02-24T07:42:21.368Z,14.40
2023-02-24T07:44:52.899Z,15.20
2023-02-24T07:47:23.063Z,14.90
2023-02-24T07:50:18.644Z,14.50
2023-02-24T07:52:48.164Z,12.80
2023-02-24T07:55:18.302Z,11.80
2023-02-24T07:58:07.540Z,13.90
2023-02-24T08:00:59.742Z,14.50
2023-02-24T08:03:35.340Z,14.10
2023-02-24T08:06:16.963Z,14.30
2023-02-24T08:09:11.560Z,15.20
2023-02-24T08:11:42.770Z,20.20
2023-02-24T08:14:14.034Z,16.40
2023-02-24T08:16:44.572Z,15.10
2023-02-24T08:19:14.490Z,14.70
2023-02-24T08:21:47.545Z,13.90
2023-02-24T08:24:18.303Z,14.30
2023-02-24T08:27:05.926Z,15.10
2023-02-24T08:29:58.416Z,15.60
2023-02-24T08:32:37.386Z,13.80
2023-02-24T08:35:17.297Z,15.50
2023-02-24T08:37:47.731Z,15.10
2023-02-24T08:40:32.432Z,14.10
2023-02-24T08:43:41.901Z,13.50
2023-02-24T08:46:24.018Z,15.70
2023-02-24T08:48:58.175Z,14.90
2023-02-24T08:51:30.907Z,13.20
2023-02-24T08:54:01.699Z,14.10
2023-02-24T08:56:35.117Z,12.90
2023-02-24T08:59:06.721Z,16.00
2023-02-24T09:01:37.561Z,14.60
2023-02-24T09:04:25.374Z,13.80
2023-02-24T09:07:10.729Z,15.60
2023-02-24T09:09:42.575Z,14.60
2023-02-24T09:12:22.270Z,13.10
2023-02-24T09:14:58.404Z,13.10
2023-02-24T09:17:46.084Z,15.00
2023-02-24T09:20:27.571Z,14.20
2023-02-24T09:23:08.992Z,13.00
2023-02-24T09:25:41.346Z,14.70
2023-02-24T09:28:48.874Z,13.90
2023-02-24T09:31:17.818Z,14.10
2023-02-24T09:34:00.356Z,14.70
2023-02-24T09:36:32.654Z,14.90
2023-02-24T09:39:04.055Z,13.80
2023-02-24T09:41:54.756Z,13.60
2023-02-24T09:44:37.962Z,14.50
2023-02-24T09:47:31.584Z,13.80
2023-02-24T09:50:07.231Z,13.20
2023-02-24T09:56:02.626Z,14.00
2023-02-24T09:58:44.029Z,14.40
2023-02-24T10:01:36.248Z,13.70
2023-02-24T10:04:27.576Z,13.50
2023-02-24T10:07:40.098Z,14.90
2023-02-24T10:10:28.346Z,15.40
2023-02-24T10:13:15.235Z,15.30
2023-02-24T10:15:57.754Z,15.40
2023-02-24T10:18:30.736Z,20.20
2023-02-24T10:21:31.563Z,17.30
2023-02-24T10:24:19.689Z,15.80
2023-02-24T10:27:00.733Z,19.10
2023-02-24T10:29:47.975Z,19.50
2023-02-24T10:32:59.040Z,14.80
2023-02-24T10:35:34.047Z,12.90
2023-02-24T10:38:07.062Z,13.60
2023-02-24T10:41:06.392Z,13.50
2023-02-24T10:43:39.683Z,11.60
2023-02-24T10:46:20.753Z,14.80
2023-02-24T10:49:00.614Z,14.30
2023-02-24T10:51:38.162Z,13.30
2023-02-24T10:54:34.612Z,14.70
2023-02-24T10:57:36.098Z,13.50
2023-02-24T11:00:53.948Z,13.30
2023-02-24T11:04:03.794Z,13.70
2023-02-24T11:06:55.887Z,12.10
2023-02-24T11:10:13.874Z,13.50
2023-02-24T11:13:09.843Z,14.00
2023-02-24T11:16:16.219Z,13.20
2023-02-24T11:22:08.951Z,14.80
2023-02-24T11:24:38.872Z,13.80
2023-02-24T11:27:27.443Z,13.10
2023-02-24T11:30:15.188Z,14.60
2023-02-24T11:33:31.245Z,13.90
2023-02-24T11:36:12.015Z,12.90
2023-02-24T11:39:29.388Z,15.70
2023-02-24T11:42:03.334Z,13.90
2023-02-24T11:45:01.866Z,15.00
2023-02-24T11:47:54.593Z,17.40
2023-02-24T11:50:40.017Z,16.80
2023-02-24T11:53:19.160Z,15.50
2023-02-24T11:55:54.171Z,14.90
2023-02-24T11:58:44.570Z,14.60
2023-02-24T12:02:04.953Z,13.80
2023-02-24T12:04:52.865Z,13.20
2023-02-24T12:07:31.063Z,15.30
2023-02-24T12:10:24.333Z,14.10
2023-02-24T12:13:11.082Z,16.20
2023-02-24T12:15:47.492Z,15.70
2023-02-24T12:18:30.509Z,16.40
2023-02-24T12:21:14.887Z,15.20
2023-02-24T12:23:47.582Z,13.20
2023-02-24T12:26:27.895Z,17.80
2023-02-24T12:29:21.794Z,16.70
2023-02-24T12:31:57.483Z,15.40
2023-02-24T12:34:55.696Z,15.10
2023-02-24T12:37:39.701Z,13.90
2023-02-24T12:41:06.260Z,14.50
2023-02-24T12:43:51.654Z,14.60
2023-02-24T12:46:23.129Z,14.70
2023-02-24T12:49:00.706Z,14.50
2023-02-24T12:51:42.028Z,16.80
2023-02-24T12:54:27.422Z,15.20
2023-02-24T12:57:04.252Z,16.10
2023-02-24T12:59:43.741Z,15.80
2023-02-24T13:02:44.730Z,16.30
2023-02-24T13:05:19.818Z,16.40
2023-02-24T13:08:16.266Z,17.10
2023-02-24T13:11:01.942Z,17.60
2023-02-24T13:13:43.334Z,15.30
2023-02-24T13:16:11.565Z,15.60
2023-02-24T13:18:41.138Z,14.70
2023-02-24T13:21:42.460Z,16.00
2023-02-24T13:24:21.317Z,16.10
2023-02-24T13:26:52.884Z,16.40
2023-02-24T13:29:22.326Z,15.80
2023-02-24T13:31:52.347Z,17.10
2023-02-24T13:34:45.481Z,16.80
2023-02-24T13:37:16.783Z,16.60
2023-02-24T13:39:45.394Z,15.70
2023-02-24T13:42:25.643Z,15.40
2023-02-24T13:45:20.973Z,15.40
2023-02-24T13:48:02.193Z,17.30
2023-02-24T13:50:59.075Z,18.10
2023-02-24T13:53:30.552Z,17.80
2023-02-24T13:56:37.325Z,18.10
2023-02-24T13:59:44.732Z,15.80
2023-02-24T14:02:24.930Z,15.70
2023-02-24T14:04:58.220Z,15.10
2023-02-24T14:07:29.763Z,16.50
2023-02-24T14:10:31.026Z,16.50
2023-02-24T14:13:14.527Z,20.60
2023-02-24T14:15:45.350Z,17.90
2023-02-24T14:18:24.855Z,18.20
2023-02-24T14:20:56.040Z,17.80
2023-02-24T14:23:32.864Z,18.00
2023-02-24T14:26:07.832Z,17.70
2023-02-24T14:28:38.126Z,15.70
2023-02-24T14:31:09.749Z,15.60
2023-02-24T14:33:43.536Z,15.50
2023-02-24T14:36:19.849Z,15.80
2023-02-24T14:39:07.454Z,16.80
2023-02-24T14:41:39.901Z,15.90
2023-02-24T14:44:19.379Z,17.90
2023-02-24T14:47:00.247Z,16.60
2023-02-24T14:49:31.159Z,16.10
2023-02-24T14:52:20.746Z,16.90
2023-02-24T14:55:08.201Z,17.50
2023-02-24T14:58:17.958Z,16.20
2023-02-24T15:00:56.588Z,16.20
2023-02-24T15:03:36.212Z,17.50
2023-02-24T15:06:13.706Z,17.10
2023-02-24T15:08:50.380Z,16.60
2023-02-24T15:11:23.388Z,16.10
2023-02-24T15:13:56.990Z,16.40
2023-02-24T15:16:53.889Z,16.20
2023-02-24T15:19:44.236Z,17.00
2023-02-24T15:22:26.513Z,15.00
2023-02-24T15:25:17.196Z,16.20
2023-02-24T15:28:04.261Z,16.50
2023-02-24T15:31:18.651Z,17.00
2023-02-24T15:34:00.618Z,19.40
2023-02-24T15:36:35.668Z,17.30
2023-02-24T15:39:11.888Z,16.60
2023-02-24T15:41:42.933Z,15.70
2023-02-24T15:44:27.817Z,15.70
2023-02-24T15:46:57.369Z,17.90
2023-02-24T15:49:26.132Z,16.30
2023-02-24T15:51:55.914Z,17.20
2023-02-24T15:54:31.749Z,19.10
2023-02-24T15:57:03.646Z,16.60
2023-02-24T15:59:32.839Z,18.90
2023-02-24T16:02:02.979Z,17.90
2023-02-24T16:04:32.534Z,22.80
2023-02-24T16:07:01.029Z,22.40
2023-02-24T16:09:38.441Z,18.30
2023-02-24T16:12:15.600Z,16.60
2023-02-24T16:14:47.337Z,18.50
2023-02-24T16:17:22.298Z,18.60
2023-02-24T16:19:55.999Z,16.70
2023-02-24T16:22:25.287Z,19.60
2023-02-24T16:25:35.374Z,21.50
2023-02-24T16:28:05.305Z,19.20
2023-02-24T16:30:58.252Z,19.80
2023-02-24T16:34:05.856Z,20.50
2023-02-24T16:39:44.837Z,18.00
2023-02-24T16:42:20.833Z,17.70
2023-02-24T16:44:53.969Z,18.20
2023-02-24T16:47:34.215Z,19.00
2023-02-24T16:50:03.072Z,19.40
2023-02-24T16:52:52.723Z,17.30
2023-02-24T16:55:32.341Z,16.60
2023-02-24T16:58:02.033Z,18.80
2023-02-24T17:00:35.064Z,16.60
2023-02-24T17:03:08.029Z,16.60
2023-02-24T17:06:03.214Z,17.10
2023-02-24T17:08:32.616Z,17.80
2023-02-24T17:11:01.828Z,16.40
2023-02-24T17:13:31.377Z,18.00
2023-02-24T17:16:01.666Z,16.40
2023-02-24T17:21:52.171Z,16.40
2023-02-24T17:24:21.719Z,15.40
2023-02-24T17:26:50.154Z,15.20
2023-02-24T17:29:18.725Z,14.60
2023-02-24T17:31:54.887Z,16.00
2023-02-24T17:34:27.817Z,16.30
2023-02-24T17:37:17.057Z,15.40
2023-02-24T17:40:00.874Z,15.30
2023-02-24T17:45:33.077Z,16.70
2023-02-24T17:48:08.837Z,15.10
2023-02-24T17:51:12.578Z,14.60
2023-02-24T17:53:40.864Z,14.90
2023-02-24T17:56:09.784Z,15.90
2023-02-24T17:58:44.253Z,15.90
2023-02-24T18:01:13.358Z,17.20
2023-02-24T18:03:46.261Z,16.10
2023-02-24T18:06:14.866Z,14.50
2023-02-24T18:08:46.450Z,14.30
2023-02-24T18:11:18.237Z,15.10
2023-02-24T18:13:54.266Z,13.80
2023-02-24T18:16:25.638Z,13.70
2023-02-24T18:18:54.359Z,14.40
2023-02-24T18:21:23.151Z,14.60
2023-02-24T18:23:52.307Z,15.00
2023-02-24T18:26:24.214Z,16.60
2023-02-24T18:29:17.241Z,14.30
2023-02-24T18:31:45.866Z,16.10
2023-02-24T18:34:14.424Z,14.40
2023-02-24T18:36:46.460Z,12.50
2023-02-24T18:39:15.359Z,13.50
2023-02-24T18:41:47.554Z,13.50
2023-02-24T18:44:16.222Z,14.40
2023-02-24T18:46:45.603Z,15.90
2023-02-24T18:49:14.187Z,17.20
2023-02-24T18:51:52.675Z,15.40
2023-02-24T18:54:24.101Z,16.20
2023-02-24T18:56:54.789Z,14.50
2023-02-24T18:59:23.487Z,14.50
2023-02-24T19:01:54.402Z,13.80
2023-02-24T19:04:26.621Z,13.00
2023-02-24T19:06:56.351Z,12.50
2023-02-24T19:09:29.594Z,13.20
2023-02-24T19:11:58.614Z,12.70
2023-02-24T19:14:28.935Z,13.90
2023-02-24T19:17:04.314Z,13.90
2023-02-24T19:19:33.690Z,14.20
2023-02-24T19:22:03.629Z,14.00
2023-02-24T19:24:33.400Z,12.80
2023-02-24T19:27:01.503Z,11.50
2023-02-24T19:29:29.974Z,12.20
2023-02-24T19:31:58.398Z,12.80
2023-02-24T19:34:29.804Z,12.60
2023-02-24T19:36:58.918Z,12.00
2023-02-24T19:39:27.596Z,12.30
2023-02-24T19:41:59.594Z,13.00
2023-02-24T19:44:29.153Z,13.10
2023-02-24T19:46:57.809Z,12.60
2023-02-24T19:49:25.959Z,12.10
2023-02-24T19:51:55.830Z,12.70
2023-02-24T19:54:24.002Z,12.10
2023-02-24T19:56:52.747Z,12.50
2023-02-24T19:59:21.249Z,13.70
2023-02-24T20:01:53.184Z,13.50
2023-02-24T20:04:26.135Z,12.40
2023-02-24T20:06:59.678Z,13.10
2023-02-24T20:09:32.461Z,12.60
2023-02-24T20:12:02.083Z,12.10
2023-02-24T20:14:30.935Z,13.50
2023-02-24T20:16:59.546Z,12.40
2023-02-24T20:19:33.813Z,13.10
2023-02-24T20:22:05.717Z,13.50
2023-02-24T20:24:35.804Z,13.30
2023-02-24T20:27:05.789Z,14.30
2023-02-24T20:29:35.476Z,14.50
2023-02-24T20:32:05.088Z,15.20
2023-02-24T20:34:43.119Z,13.80
2023-02-24T20:37:16.802Z,13.30
2023-02-24T20:39:48.431Z,14.90
2023-02-24T20:42:25.576Z,15.30
2023-02-24T20:44:56.227Z,13.70
2023-02-24T20:47:28.038Z,14.50
2023-02-24T20:49:56.684Z,13.20
2023-02-24T20:52:25.810Z,14.60
2023-02-24T20:54:56.810Z,13.00
2023-02-24T20:57:30.838Z,13.30
2023-02-24T21:00:05.268Z,14.00
2023-02-24T21:02:38.921Z,13.10
2023-02-24T21:05:11.445Z,14.70
2023-02-24T21:07:40.173Z,13.30
2023-02-24T21:10:11.092Z,13.20
2023-02-24T21:12:42.920Z,14.60
2023-02-24T21:15:15.267Z,13.70
2023-02-24T21:17:46.899Z,14.50
2023-02-24T21:20:20.610Z,14.30
2023-02-24T21:22:52.835Z,13.70
2023-02-24T21:25:21.854Z,13.40
2023-02-24T21:27:50.666Z,14.00
2023-02-24T21:30:19.011Z,12.80
2023-02-24T21:32:49.099Z,13.20
2023-02-24T21:35:17.653Z,13.00
2023-02-24T21:37:48.408Z,13.70
2023-02-24T21:40:17.932Z,14.30
2023-02-24T21:42:47.844Z,13.40
2023-02-24T21:45:19.408Z,14.00
2023-02-24T21:47:48.718Z,13.00
2023-02-24T21:50:18.274Z,12.60
2023-02-24T21:52:47.985Z,13.50
2023-02-24T21:55:16.480Z,14.20
2023-02-24T21:57:48.481Z,13.60
2023-02-24T22:00:22.529Z,14.80
2023-02-24T22:02:54.575Z,15.50
2023-02-24T22:05:25.538Z,14.50
2023-02-24T22:07:57.402Z,12.30
2023-02-24T22:10:28.245Z,13.10
2023-02-24T22:12:59.010Z,14.10
2023-02-24T22:15:28.078Z,13.40
2023-02-24T22:17:56.387Z,13.70
2023-02-24T22:20:25.047Z,13.60
2023-02-24T22:22:53.297Z,14.20
2023-02-24T22:25:21.646Z,14.00
2023-02-24T22:27:50.043Z,14.40
2023-02-24T22:30:18.898Z,14.60
2023-02-24T22:32:47.946Z,13.40
2023-02-24T22:35:18.803Z,13.90
2023-02-24T22:37:47.808Z,13.50
2023-02-24T22:40:16.461Z,14.70
2023-02-24T22:42:50.186Z,15.90
2023-02-24T22:45:19.228Z,17.30
2023-02-24T22:47:47.400Z,15.00
2023-02-24T22:50:15.483Z,15.60
2023-02-24T22:52:43.640Z,16.30
2023-02-24T22:55:11.909Z,14.90
2023-02-24T22:57:40.631Z,15.70
2023-02-24T23:00:11.094Z,17.90
2023-02-24T23:02:42.642Z,16.50
2023-02-24T23:05:14.079Z,16.50
2023-02-24T23:07:42.972Z,17.90
2023-02-24T23:10:16.575Z,16.90
2023-02-24T23:12:49.664Z,18.90
2023-02-24T23:15:23.282Z,16.20
2023-02-24T23:17:53.196Z,15.70
2023-02-24T23:20:24.348Z,15.20
2023-02-24T23:22:53.595Z,15.20
2023-02-24T23:25:23.218Z,16.40
2023-02-24T23:27:51.739Z,16.80
2023-02-24T23:30:20.436Z,17.40
2023-02-24T23:32:49.121Z,16.50
2023-02-24T23:35:17.828Z,15.70
2023-02-24T23:37:47.193Z,16.70
2023-02-24T23:40:27.780Z,16.20
2023-02-24T23:42:56.065Z,15.10
2023-02-24T23:45:25.088Z,16.80
2023-02-24T23:47:54.512Z,15.70
2023-02-24T23:50:22.531Z,17.10
2023-02-24T23:52:50.822Z,17.80
2023-02-24T23:55:19.898Z,17.30
2023-02-24T23:57:48.254Z,18.80
